Frazier Park, California
Current Conditions -  °F | °C
As of 8:48 PM on Monday 20 Oct 2014 (Local Time) from KSDB Reporting Station
Clear Clear  
Wind Chill: 59°   Ceiling: Unl
Heat Index: 59°   Visibility: 10mi
Dew Point: 44°   Wind: 16mph
Humidity: 58%   Direction: 330°NNW
Pressure: 30.04"   Gusts: 31mph
Location:  34.82°N, 118.95°W
Report Text: KSDB 210348Z AUTO 33014G27KT 10SM CLR 15/07 A3004 RMK AO2 PK WND 33027/0342 SLP130 T01500067
Loading
Personal Weather Stations






























Interactive Weather Map
Tropical Storm Tracking
New forecast layout! Learn more

10-Day Weather Forecast

Advertisements
Track Severe Weather on mobile